Time;durP1;ratioP1;P1;durP2;ratioP2;P2;SDS_P1;SDS_P2;PMS_P1;PMS_P2;Temp;Humidity;BMP_temperature;BMP_pressure;BME280_temperature;BME280_humidity;BME280_pressure;Samples;Min_cycle;Max_cycle;Signal;HPM_P1;HPM_P2
2023/01/17 00:00:07;;;;;;;1999.90;999.90;;;3.30;99.90;;;;;;5030976;28;20467;-69
2023/01/17 00:02:34;;;;;;;1999.90;999.90;;;3.20;99.90;;;;;;5041414;28;20453;-68
2023/01/17 00:10:31;;;;;;;1999.90;999.90;;;3.00;99.90;;;;;;5029330;28;20468;-67
2023/01/17 00:12:59;;;;;;;1999.90;999.90;;;2.90;99.90;;;;;;5029685;28;20453;-67
2023/01/17 00:15:28;;;;;;;1999.90;999.90;;;2.90;99.90;;;;;;5029998;28;20445;-67
2023/01/17 00:17:55;;;;;;;1999.90;999.90;;;2.80;99.90;;;;;;5029467;28;20455;-67
2023/01/17 00:26:02;;;;;;;1999.90;999.90;;;2.70;99.90;;;;;;5029482;28;20428;-68
2023/01/17 01:35:28;;;;;;;1999.90;999.90;;;3.20;99.90;;;;;;5028642;28;20419;-68
2023/01/17 01:37:54;;;;;;;1999.90;999.90;;;3.20;99.90;;;;;;5029155;28;20484;-67
2023/01/17 01:40:22;;;;;;;1999.90;999.90;;;3.20;99.90;;;;;;5028099;28;20991;-68
2023/01/17 01:42:51;;;;;;;1999.90;999.90;;;3.10;99.90;;;;;;5028999;28;20559;-67
2023/01/17 01:45:21;;;;;;;1999.90;999.90;;;3.00;99.90;;;;;;5028695;28;20481;-67
2023/01/17 01:47:49;;;;;;;1999.90;999.90;;;3.00;99.90;;;;;;5028881;28;20816;-66
2023/01/17 01:50:19;;;;;;;1999.90;999.90;;;3.00;99.90;;;;;;5028272;28;20479;-68
2023/01/17 01:52:50;;;;;;;1999.90;999.90;;;3.00;99.90;;;;;;5028817;28;20449;-67
2023/01/17 01:55:20;;;;;;;1999.90;999.90;;;3.00;99.90;;;;;;5028402;28;20445;-68
2023/01/17 01:57:52;;;;;;;1999.90;999.90;;;3.00;99.90;;;;;;5028058;28;20989;-68
2023/01/17 02:00:24;;;;;;;1999.90;999.90;;;3.10;99.90;;;;;;5028388;28;20477;-67
2023/01/17 02:02:53;;;;;;;1999.90;999.90;;;3.20;99.90;;;;;;5028258;28;20448;-68
2023/01/17 02:05:22;;;;;;;1999.90;999.90;;;3.30;99.90;;;;;;5028230;28;20476;-68
2023/01/17 02:07:54;;;;;;;1999.90;999.90;;;3.40;99.90;;;;;;5028224;28;20834;-68
2023/01/17 02:10:21;;;;;;;1999.90;999.90;;;3.50;99.90;;;;;;5027908;28;20484;-68
2023/01/17 02:12:51;;;;;;;1999.90;999.90;;;3.40;99.90;;;;;;5028175;28;20456;-68
2023/01/17 02:15:18;;;;;;;1999.90;999.90;;;3.40;99.90;;;;;;5028522;28;20449;-68
2023/01/17 02:17:52;;;;;;;1999.90;999.90;;;3.50;99.90;;;;;;5028326;28;20441;-68
2023/01/17 02:21:04;;;;;;;1999.90;999.90;;;3.60;99.90;;;;;;5027680;28;20858;-68
2023/01/17 02:24:07;;;;;;;1999.90;999.90;;;3.60;99.90;;;;;;4984077;28;20438;-70
2023/01/17 02:26:53;;;;;;;1999.90;999.90;;;3.60;99.90;;;;;;4986231;28;20445;-67
2023/01/17 02:30:05;;;;;;;1999.90;999.90;;;3.60;99.90;;;;;;5026290;28;20478;-69
2023/01/17 02:32:42;;;;;;;1999.90;999.90;;;3.60;99.90;;;;;;5012629;28;20458;-68
2023/01/17 02:35:15;;;;;;;1999.90;999.90;;;3.60;99.90;;;;;;5033658;28;20458;-68
2023/01/17 02:37:58;;;;;;;1999.90;999.90;;;3.60;99.90;;;;;;5031688;28;20456;-67
2023/01/17 02:40:29;;;;;;;1999.90;999.90;;;3.60;99.90;;;;;;5046688;28;20468;-67
2023/01/17 02:43:01;;;;;;;1999.90;999.90;;;3.60;99.90;;;;;;5036943;28;20725;-67
2023/01/17 02:45:28;;;;;;;1999.90;999.90;;;3.70;99.90;;;;;;5038711;28;20506;-67
2023/01/17 02:47:57;;;;;;;1999.90;999.90;;;3.70;99.90;;;;;;5031177;28;20540;-68
2023/01/17 02:50:26;;;;;;;1999.90;999.90;;;3.70;99.90;;;;;;5031190;28;20935;-68
2023/01/17 02:53:17;;;;;;;1999.90;999.90;;;3.70;99.90;;;;;;5030968;28;20456;-68
2023/01/17 02:55:53;;;;;;;1999.90;999.90;;;3.70;99.90;;;;;;5028704;28;20453;-68
2023/01/17 02:58:34;;;;;;;1999.90;999.90;;;3.60;99.90;;;;;;5031511;28;20440;-67
2023/01/17 03:01:09;;;;;;;1999.90;999.90;;;3.60;99.90;;;;;;5051116;28;20460;-67
2023/01/17 03:03:49;;;;;;;1999.90;999.90;;;3.60;99.90;;;;;;5035243;28;20452;-68
2023/01/17 03:06:21;;;;;;;1999.90;999.90;;;3.60;99.90;;;;;;5031238;28;20488;-67
2023/01/17 03:08:50;;;;;;;1999.90;999.90;;;3.60;99.90;;;;;;5030240;28;20453;-67
2023/01/17 03:11:17;;;;;;;1999.90;999.90;;;3.70;99.90;;;;;;5031187;28;20476;-68
2023/01/17 03:13:44;;;;;;;1999.90;999.90;;;3.60;99.90;;;;;;5030795;28;20452;-68
2023/01/17 03:16:16;;;;;;;1999.90;999.90;;;3.70;99.90;;;;;;5031047;28;20831;-67
2023/01/17 03:18:44;;;;;;;1999.90;999.90;;;3.60;99.90;;;;;;5030598;28;20453;-67
2023/01/17 03:21:11;;;;;;;1999.90;999.90;;;3.60;99.90;;;;;;5030809;28;20467;-67
2023/01/17 03:23:38;;;;;;;1999.90;999.90;;;3.60;99.90;;;;;;5030875;28;20451;-67
2023/01/17 03:26:05;;;;;;;1999.90;999.90;;;3.60;99.90;;;;;;5030406;28;20483;-67
2023/01/17 03:28:32;;;;;;;1999.90;999.90;;;3.70;99.90;;;;;;5030375;28;20982;-68
2023/01/17 03:30:59;;;;;;;1999.90;999.90;;;3.70;99.90;;;;;;5029925;28;20991;-68
2023/01/17 03:33:26;;;;;;;1999.90;999.90;;;3.70;99.90;;;;;;5030778;28;20441;-67
2023/01/17 03:35:56;;;;;;;1999.90;999.90;;;3.70;99.90;;;;;;5030532;28;20455;-69
2023/01/17 03:38:24;;;;;;;1999.90;999.90;;;3.80;99.90;;;;;;5030351;28;20469;-69
2023/01/17 03:40:50;;;;;;;1999.90;999.90;;;3.70;99.90;;;;;;5029527;28;20467;-67
2023/01/17 03:43:17;;;;;;;1999.90;999.90;;;3.70;99.90;;;;;;5030188;28;20449;-68
2023/01/17 03:45:44;;;;;;;1999.90;999.90;;;3.70;99.90;;;;;;5030241;28;20481;-68
2023/01/17 03:48:11;;;;;;;1999.90;999.90;;;3.70;99.90;;;;;;5030251;28;20449;-67
2023/01/17 03:50:38;;;;;;;1999.90;999.90;;;3.70;99.90;;;;;;5033775;28;20526;-68
2023/01/17 03:53:06;;;;;;;1999.90;999.90;;;3.70;99.90;;;;;;5050015;28;20454;-68
2023/01/17 03:55:33;;;;;;;1999.90;999.90;;;3.60;99.90;;;;;;5048302;28;20448;-67
2023/01/17 03:58:00;;;;;;;1999.90;999.90;;;3.60;99.90;;;;;;5049805;28;20456;-67
2023/01/17 04:00:26;;;;;;;1999.90;999.90;;;3.40;99.90;;;;;;5046792;28;20478;-68
2023/01/17 04:02:54;;;;;;;1999.90;999.90;;;3.10;99.90;;;;;;5035091;28;20846;-67
2023/01/17 04:05:20;;;;;;;1999.90;999.90;;;3.00;99.90;;;;;;5039680;28;20476;-68
2023/01/17 04:07:47;;;;;;;1999.90;999.90;;;2.90;99.90;;;;;;5030378;28;20452;-67
2023/01/17 04:10:16;;;;;;;1999.90;999.90;;;2.90;99.90;;;;;;5029316;28;20484;-67
2023/01/17 04:12:43;;;;;;;1999.90;999.90;;;2.90;99.90;;;;;;5029931;28;21141;-67
2023/01/17 04:15:11;;;;;;;1999.90;999.90;;;2.90;99.90;;;;;;5030040;28;20528;-67
2023/01/17 04:17:38;;;;;;;1999.90;999.90;;;2.90;99.90;;;;;;5030097;28;20449;-67
2023/01/17 04:20:05;;;;;;;1999.90;999.90;;;2.80;99.90;;;;;;5029698;28;20468;-68
2023/01/17 04:22:32;;;;;;;1999.90;999.90;;;2.70;99.90;;;;;;5029708;28;20988;-68
2023/01/17 04:24:59;;;;;;;1999.90;999.90;;;2.70;99.90;;;;;;5029985;28;20504;-70
2023/01/17 04:27:27;;;;;;;1999.90;999.90;;;2.60;99.90;;;;;;5029713;28;20453;-68
2023/01/17 04:29:54;;;;;;;1999.90;999.90;;;2.60;99.90;;;;;;5029828;28;20468;-68
2023/01/17 04:32:21;;;;;;;1999.90;999.90;;;2.50;99.90;;;;;;5029642;28;20555;-67
2023/01/17 04:34:48;;;;;;;1999.90;999.90;;;2.40;99.90;;;;;;5029815;28;20449;-67
2023/01/17 04:37:15;;;;;;;1999.90;999.90;;;2.30;99.90;;;;;;5029483;28;20830;-67
2023/01/17 04:39:41;;;;;;;1999.90;999.90;;;2.30;99.90;;;;;;5029035;28;20476;-67
2023/01/17 04:42:08;;;;;;;1999.90;999.90;;;2.20;99.90;;;;;;5029717;28;20441;-67
2023/01/17 04:44:36;;;;;;;1999.90;999.90;;;2.20;99.90;;;;;;5029301;28;20449;-67
2023/01/17 04:47:03;;;;;;;1999.90;999.90;;;2.20;99.90;;;;;;5029589;28;20455;-67
2023/01/17 04:49:30;;;;;;;1999.90;999.90;;;2.20;99.90;;;;;;5028794;28;20473;-68
2023/01/17 04:51:57;;;;;;;1999.90;999.90;;;2.10;99.90;;;;;;5029141;28;20459;-67
2023/01/17 04:54:23;;;;;;;1999.90;999.90;;;2.20;99.90;;;;;;5029019;28;20455;-68
2023/01/17 04:56:50;;;;;;;1999.90;999.90;;;2.30;99.90;;;;;;5029611;28;20451;-67
2023/01/17 04:59:17;;;;;;;1999.90;999.90;;;2.30;99.90;;;;;;5009043;28;20480;-67
2023/01/17 05:01:47;;;;;;;1999.90;999.90;;;2.40;99.90;;;;;;5009380;28;20970;-67
2023/01/17 05:04:14;;;;;;;1999.90;999.90;;;2.40;99.90;;;;;;5009568;28;20461;-67
2023/01/17 05:06:41;;;;;;;1999.90;999.90;;;2.40;99.90;;;;;;5023504;28;21034;-69
2023/01/17 05:09:07;;;;;;;1999.90;999.90;;;2.50;99.90;;;;;;5028608;28;20522;-67
2023/01/17 05:11:34;;;;;;;1999.90;999.90;;;2.60;99.90;;;;;;5029790;28;20460;-68
2023/01/17 05:14:01;;;;;;;1999.90;999.90;;;2.60;99.90;;;;;;5048697;28;20443;-68
2023/01/17 05:16:28;;;;;;;1999.90;999.90;;;2.60;99.90;;;;;;5044184;28;20820;-67
2023/01/17 05:18:56;;;;;;;1999.90;999.90;;;2.50;99.90;;;;;;5039620;28;20455;-67
2023/01/17 05:21:23;;;;;;;1999.90;999.90;;;2.40;99.90;;;;;;5028919;28;20466;-67
2023/01/17 05:23:50;;;;;;;1999.90;999.90;;;2.30;99.90;;;;;;5028624;28;20437;-67
2023/01/17 05:26:17;;;;;;;1999.90;999.90;;;2.20;99.90;;;;;;5028959;28;20503;-66
2023/01/17 05:28:44;;;;;;;1999.90;999.90;;;2.00;99.90;;;;;;5028431;28;20540;-68
2023/01/17 05:31:10;;;;;;;1999.90;999.90;;;2.00;99.90;;;;;;5028872;28;20536;-66
2023/01/17 05:33:37;;;;;;;1999.90;999.90;;;2.00;99.90;;;;;;5028119;28;20942;-67
2023/01/17 05:36:06;;;;;;;1999.90;999.90;;;2.00;99.90;;;;;;5028527;28;20841;-67
2023/01/17 05:38:33;;;;;;;1999.90;999.90;;;1.90;99.90;;;;;;5028465;28;20448;-70
2023/01/17 05:41:00;;;;;;;1999.90;999.90;;;1.80;99.90;;;;;;5028559;28;20464;-66
2023/01/17 05:43:27;;;;;;;1999.90;999.90;;;1.70;99.90;;;;;;5028793;28;20544;-68
2023/01/17 05:45:54;;;;;;;1999.90;999.90;;;1.70;99.90;;;;;;5025319;28;20864;-66
2023/01/17 05:48:21;;;;;;;1999.90;999.90;;;1.60;99.90;;;;;;5019620;28;20460;-66
2023/01/17 05:50:48;;;;;;;1999.90;999.90;;;1.50;99.90;;;;;;5027810;28;20469;-66
2023/01/17 05:53:17;;;;;;;1999.90;999.90;;;1.50;99.90;;;;;;5028881;28;20451;-66
2023/01/17 05:55:44;;;;;;;1999.90;999.90;;;1.50;99.90;;;;;;5028779;28;20449;-66
2023/01/17 05:58:15;;;;;;;1999.90;999.90;;;1.50;99.90;;;;;;5029659;28;20489;-66
2023/01/17 06:00:42;;;;;;;1999.90;999.90;;;1.50;99.90;;;;;;5028168;28;20519;-66
2023/01/17 06:03:10;;;;;;;1999.90;999.90;;;1.50;99.90;;;;;;5026458;28;20463;-65
2023/01/17 06:05:37;;;;;;;1999.90;999.90;;;1.50;99.90;;;;;;5031363;28;20500;-66
2023/01/17 06:08:04;;;;;;;1999.90;999.90;;;1.50;99.90;;;;;;5031318;28;20449;-66
2023/01/17 06:10:33;;;;;;;1999.90;999.90;;;1.40;99.90;;;;;;5030590;28;20476;-65
2023/01/17 06:13:04;;;;;;;1999.90;999.90;;;1.50;99.90;;;;;;5031482;28;20449;-65
2023/01/17 06:15:32;;;;;;;1999.90;999.90;;;1.50;99.90;;;;;;5031540;28;20479;-65
2023/01/17 06:18:03;;;;;;;1999.90;999.90;;;1.50;99.90;;;;;;5031878;28;20471;-66
2023/01/17 06:20:29;;;;;;;1999.90;999.90;;;1.50;99.90;;;;;;5044599;28;20826;-72
2023/01/17 06:22:56;;;;;;;1999.90;999.90;;;1.40;99.90;;;;;;5032258;28;20448;-66
2023/01/17 06:25:23;;;;;;;1999.90;999.90;;;1.40;99.90;;;;;;5048109;28;20451;-66
2023/01/17 06:27:53;;;;;;;1999.90;999.90;;;1.30;99.90;;;;;;5051965;28;20463;-66
2023/01/17 06:30:20;;;;;;;1999.90;999.90;;;1.20;99.90;;;;;;5051433;28;20498;-67
2023/01/17 06:32:52;;;;;;;1999.90;999.90;;;1.00;99.90;;;;;;5051895;28;20844;-66
2023/01/17 06:35:19;;;;;;;1999.90;999.90;;;1.00;99.90;;;;;;5052174;28;20440;-65
2023/01/17 06:37:46;;;;;;;1999.90;999.90;;;0.90;99.90;;;;;;5045937;28;20449;-65
2023/01/17 06:40:13;;;;;;;1999.90;999.90;;;0.90;99.90;;;;;;5031454;28;20469;-65
2023/01/17 06:42:40;;;;;;;1999.90;999.90;;;0.80;99.90;;;;;;5031624;28;20455;-66
2023/01/17 06:45:09;;;;;;;1999.90;999.90;;;0.80;99.90;;;;;;5031753;28;20449;-67
2023/01/17 06:47:38;;;;;;;1999.90;999.90;;;0.70;99.90;;;;;;5031245;28;20481;-66
2023/01/17 06:50:06;;;;;;;1999.90;999.90;;;0.60;99.90;;;;;;5031380;28;20468;-66
2023/01/17 06:52:33;;;;;;;1999.90;999.90;;;0.60;99.90;;;;;;5031577;28;20441;-66
2023/01/17 06:55:00;;;;;;;1999.90;999.90;;;0.60;99.90;;;;;;5024951;28;20452;-67
2023/01/17 06:57:26;;;;;;;1999.90;999.90;;;0.50;99.90;;;;;;5030931;28;20683;-66
2023/01/17 06:59:53;;;;;;;1999.90;999.90;;;0.40;99.90;;;;;;5031101;28;20468;-66
2023/01/17 07:02:21;;;;;;;1999.90;999.90;;;0.30;99.90;;;;;;5031106;28;20445;-67
2023/01/17 07:04:48;;;;;;;1999.90;999.90;;;0.20;99.90;;;;;;5031552;28;20445;-67
2023/01/17 07:07:15;;;;;;;1999.90;999.90;;;0.30;99.90;;;;;;5031336;28;20477;-66
2023/01/17 07:09:42;;;;;;;1999.90;999.90;;;0.30;99.90;;;;;;5030780;28;20492;-66
2023/01/17 07:12:09;;;;;;;1999.90;999.90;;;0.30;99.90;;;;;;5030070;28;20522;-66
2023/01/17 07:14:36;;;;;;;1999.90;999.90;;;0.40;99.90;;;;;;5021517;28;20959;-66
2023/01/17 07:17:04;;;;;;;1999.90;999.90;;;0.40;99.90;;;;;;5030900;28;20437;-67
2023/01/17 07:19:32;;;;;;;1999.90;999.90;;;0.50;99.90;;;;;;5030374;28;20472;-67
2023/01/17 07:21:59;;;;;;;1999.90;999.90;;;0.60;99.90;;;;;;5030967;28;20849;-66
2023/01/17 07:24:26;;;;;;;1999.90;999.90;;;0.50;99.90;;;;;;5030926;28;20444;-66
2023/01/17 07:26:52;;;;;;;1999.90;999.90;;;0.50;99.90;;;;;;5030737;28;20491;-66
2023/01/17 07:29:19;;;;;;;1999.90;999.90;;;0.50;99.90;;;;;;5030433;28;20484;-66
2023/01/17 07:31:48;;;;;;;1999.90;999.90;;;0.60;99.90;;;;;;5030631;28;20444;-66
2023/01/17 07:34:15;;;;;;;1999.90;999.90;;;0.70;99.90;;;;;;5030864;28;20447;-65
2023/01/17 07:36:44;;;;;;;1999.90;999.90;;;0.80;99.90;;;;;;5030712;28;20827;-67
2023/01/17 07:39:11;;;;;;;1999.90;999.90;;;0.80;99.90;;;;;;5030585;28;20491;-66
2023/01/17 07:41:40;;;;;;;1999.90;999.90;;;0.80;99.90;;;;;;5030624;28;20926;-65
2023/01/17 07:44:06;;;;;;;1999.90;999.90;;;0.80;99.90;;;;;;5030343;28;20479;-66
2023/01/17 07:46:33;;;;;;;1999.90;999.90;;;0.80;99.90;;;;;;5030335;28;20477;-67
2023/01/17 07:49:00;;;;;;;1999.90;999.90;;;0.90;99.90;;;;;;5029956;28;20472;-64
2023/01/17 07:51:27;;;;;;;1999.90;999.90;;;0.90;99.90;;;;;;5030222;28;20978;-66
2023/01/17 07:53:55;;;;;;;1999.90;999.90;;;0.80;99.90;;;;;;5030119;28;20482;-65
2023/01/17 07:56:22;;;;;;;1999.90;999.90;;;0.80;99.90;;;;;;5030300;28;20445;-66
2023/01/17 07:58:49;;;;;;;1999.90;999.90;;;0.80;99.90;;;;;;5023146;28;20453;-67
2023/01/17 08:01:16;;;;;;;1999.90;999.90;;;0.80;99.90;;;;;;5025564;28;20453;-66
2023/01/17 08:03:43;;;;;;;1999.90;999.90;;;0.60;99.90;;;;;;5028912;28;20821;-66
2023/01/17 08:06:18;;;;;;;1999.90;999.90;;;0.50;99.90;;;;;;5028321;28;20488;-65
2023/01/17 08:08:45;;;;;;;1999.90;999.90;;;0.60;99.90;;;;;;5028470;28;20506;-65
2023/01/17 08:11:14;;;;;;;1999.90;999.90;;;0.60;99.90;;;;;;5029069;28;20449;-67
2023/01/17 08:13:41;;;;;;;1999.90;999.90;;;0.70;99.90;;;;;;5028917;28;20464;-65
2023/01/17 08:16:09;;;;;;;1999.90;999.90;;;0.80;99.90;;;;;;5028608;28;20449;-66
2023/01/17 08:18:36;;;;;;;1999.90;999.90;;;0.80;99.90;;;;;;5028185;28;20457;-66
2023/01/17 08:21:03;;;;;;;1999.90;999.90;;;0.80;99.90;;;;;;5029099;28;20835;-66
2023/01/17 08:23:31;;;;;;;1999.90;999.90;;;0.90;99.90;;;;;;5028727;28;20451;-66
2023/01/17 08:26:00;;;;;;;1999.90;999.90;;;1.00;99.90;;;;;;5028234;28;20448;-67
2023/01/17 08:28:28;;;;;;;1999.90;999.90;;;1.10;99.90;;;;;;5028314;28;20457;-66
2023/01/17 08:30:55;;;;;;;1999.90;999.90;;;1.20;99.90;;;;;;5028113;28;20986;-67
2023/01/17 08:33:22;;;;;;;1999.90;999.90;;;1.40;99.90;;;;;;5028268;28;20951;-67
2023/01/17 08:35:52;;;;;;;1999.90;999.90;;;1.60;99.90;;;;;;5028682;28;20614;-67
2023/01/17 08:38:19;;;;;;;1999.90;999.90;;;1.70;99.90;;;;;;5028427;28;20525;-67
2023/01/17 08:40:46;;;;;;;1999.90;999.90;;;2.00;99.90;;;;;;5024401;28;20476;-66
2023/01/17 08:43:13;;;;;;;1999.90;999.90;;;2.20;99.90;;;;;;5024645;28;20464;-66
2023/01/17 08:45:42;;;;;;;1999.90;999.90;;;2.30;99.90;;;;;;5023472;28;20822;-66
2023/01/17 08:48:09;;;;;;;1999.90;999.90;;;2.50;99.90;;;;;;5028186;28;20539;-67
2023/01/17 08:50:36;;;;;;;1999.90;999.90;;;2.70;99.90;;;;;;5028297;28;21059;-68
2023/01/17 08:53:03;;;;;;;1999.90;999.90;;;2.80;99.90;;;;;;5028256;28;20455;-67
2023/01/17 08:55:30;;;;;;;1999.90;999.90;;;3.00;99.90;;;;;;5028218;28;20954;-67
2023/01/17 08:57:56;;;;;;;1999.90;999.90;;;3.10;99.90;;;;;;5026469;28;20831;-66
2023/01/17 09:00:23;;;;;;;1999.90;999.90;;;3.20;99.90;;;;;;5023906;28;20473;-66
2023/01/17 09:02:53;;;;;;;1999.90;999.90;;;3.40;99.90;;;;;;5027961;28;20476;-66
2023/01/17 09:05:19;;;;;;;1999.90;999.90;;;3.50;99.90;;;;;;5024214;28;20452;-66
2023/01/17 09:07:46;;;;;;;1999.90;999.90;;;3.60;99.90;;;;;;5027551;28;20487;-65
2023/01/17 09:10:13;;;;;;;1999.90;999.90;;;3.80;99.90;;;;;;5027931;28;20480;-65
2023/01/17 09:12:40;;;;;;;1999.90;999.90;;;3.90;99.90;;;;;;5027740;28;20451;-66
2023/01/17 09:15:07;;;;;;;1999.90;999.90;;;4.10;99.90;;;;;;5028038;28;20992;-67
2023/01/17 09:17:34;;;;;;;1999.90;999.90;;;4.20;99.90;;;;;;5027798;28;20455;-66
2023/01/17 09:20:02;;;;;;;1999.90;999.90;;;4.20;99.90;;;;;;5027431;28;20460;-66
2023/01/17 09:22:29;;;;;;;1999.90;999.90;;;4.40;99.90;;;;;;5027939;28;20459;-67
2023/01/17 09:24:56;;;;;;;1999.90;999.90;;;4.50;99.90;;;;;;5028185;28;20832;-65
2023/01/17 09:27:23;;;;;;;1999.90;999.90;;;4.70;99.90;;;;;;5027286;28;21113;-68
2023/01/17 09:29:49;;;;;;;1999.90;999.90;;;4.90;99.90;;;;;;5027830;28;20484;-67
2023/01/17 09:32:16;;;;;;;1999.90;999.90;;;5.10;99.90;;;;;;5027764;28;21133;-65
2023/01/17 09:34:43;;;;;;;1999.90;999.90;;;5.30;99.90;;;;;;5027883;28;20449;-65
2023/01/17 09:37:12;;;;;;;1999.90;999.90;;;5.50;99.90;;;;;;5027850;28;20444;-65
2023/01/17 09:39:38;;;;;;;1999.90;999.90;;;5.60;99.90;;;;;;5029948;28;20469;-66
2023/01/17 09:42:21;;;;;;;1999.90;999.90;;;5.70;99.90;;;;;;5032666;28;20443;-66
2023/01/17 09:44:50;;;;;;;1999.90;999.90;;;5.90;99.90;;;;;;5024989;28;20472;-65
2023/01/17 09:47:31;;;;;;;1999.90;999.90;;;5.80;99.90;;;;;;5031653;28;20485;-67
2023/01/17 09:50:03;;;;;;;1999.90;999.90;;;5.70;99.90;;;;;;5031529;28;20460;-66
2023/01/17 09:52:32;;;;;;;1999.90;999.90;;;5.90;99.90;;;;;;5031548;28;20459;-67
2023/01/17 09:54:59;;;;;;;1999.90;999.90;;;5.90;99.90;;;;;;5031336;28;20456;-66
2023/01/17 09:57:40;;;;;;;1999.90;999.90;;;6.00;99.90;;;;;;5022621;28;20455;-66
2023/01/17 10:00:19;;;;;;;1999.90;999.90;;;6.20;99.90;;;;;;5023123;28;20469;-66
2023/01/17 10:03:09;;;;;;;1999.90;999.90;;;6.50;99.90;;;;;;5029193;28;20453;-66
2023/01/17 10:05:53;;;;;;;1999.90;999.90;;;6.70;99.90;;;;;;5026530;28;20459;-68
2023/01/17 10:08:33;;;;;;;1999.90;999.90;;;6.60;99.90;;;;;;5030458;28;21118;-67
2023/01/17 10:11:17;;;;;;;1999.90;999.90;;;6.50;99.90;;;;;;5030898;28;20459;-67
2023/01/17 10:13:56;;;;;;;1999.90;999.90;;;6.20;99.90;;;;;;5031309;28;20440;-67
2023/01/17 10:16:37;;;;;;;1999.90;999.90;;;6.00;99.90;;;;;;5031344;28;20466;-69
2023/01/17 10:19:18;;;;;;;1999.90;999.90;;;5.80;99.90;;;;;;5030591;28;20921;-67
2023/01/17 10:22:03;;;;;;;1999.90;999.90;;;5.70;99.90;;;;;;5030899;28;20452;-68
2023/01/17 10:24:58;;;;;;;1999.90;999.90;;;5.70;99.90;;;;;;5031681;28;20539;-66
2023/01/17 10:27:29;;;;;;;1999.90;999.90;;;5.70;99.90;;;;;;5031734;28;20507;-68
2023/01/17 10:29:55;;;;;;;1999.90;999.90;;;6.30;99.90;;;;;;5028339;28;20854;-68
2023/01/17 10:32:28;;;;;;;1999.90;999.90;;;7.20;99.90;;;;;;5030812;28;20464;-67
2023/01/17 10:34:57;;;;;;;1999.90;999.90;;;7.80;99.90;;;;;;5024951;28;20848;-67
2023/01/17 10:37:31;;;;;;;1999.90;999.90;;;8.30;99.90;;;;;;5029336;28;20448;-68
2023/01/17 10:40:12;;;;;;;1999.90;999.90;;;9.10;99.90;;;;;;5028238;28;20494;-69
2023/01/17 10:42:49;;;;;;;1999.90;999.90;;;9.90;99.90;;;;;;5028381;28;20456;-67
2023/01/17 10:45:20;;;;;;;1999.90;999.90;;;10.50;99.90;;;;;;5025669;28;20454;-69
2023/01/17 10:47:52;;;;;;;1999.90;999.90;;;11.10;99.90;;;;;;5029926;28;20480;-66
2023/01/17 10:50:21;;;;;;;1999.90;999.90;;;11.20;99.30;;;;;;5026546;28;20471;-67
2023/01/17 10:52:57;;;;;;;1999.90;999.90;;;11.70;99.90;;;;;;5030613;28;20434;-67
2023/01/17 10:55:37;;;;;;;1999.90;999.90;;;11.70;98.20;;;;;;5030789;28;20453;-67
2023/01/17 10:58:08;;;;;;;1999.90;999.90;;;11.80;96.80;;;;;;5026760;28;20441;-67
2023/01/17 11:00:46;;;;;;;1999.90;999.90;;;12.10;96.40;;;;;;5030029;28;20552;-67
2023/01/17 11:03:15;;;;;;;1999.90;999.90;;;12.10;96.50;;;;;;5029237;28;20441;-67
2023/01/17 11:05:42;;;;;;;1999.90;999.90;;;11.20;96.10;;;;;;5030573;28;20445;-67
2023/01/17 11:08:12;;;;;;;1999.90;999.90;;;10.70;97.40;;;;;;5030147;28;20740;-67
2023/01/17 11:10:43;;;;;;;1999.90;999.90;;;9.90;97.00;;;;;;5029094;28;20468;-66
2023/01/17 11:13:29;;;;;;;1999.90;999.90;;;9.20;98.40;;;;;;5030253;28;20446;-67
2023/01/17 11:15:59;;;;;;;1999.90;999.90;;;8.60;99.90;;;;;;5027627;28;21101;-66
2023/01/17 11:18:29;;;;;;;1999.90;999.90;;;8.00;99.90;;;;;;5029180;28;20958;-66
2023/01/17 11:21:10;;;;;;;1999.90;999.90;;;7.60;99.90;;;;;;5028233;28;20571;-67
2023/01/17 11:23:39;;;;;;;1999.90;999.90;;;7.00;99.90;;;;;;5027733;28;21002;-67
2023/01/17 11:26:10;;;;;;;1999.90;999.90;;;6.70;99.90;;;;;;5027453;28;20442;-66
2023/01/17 11:28:38;;;;;;;1999.90;999.90;;;6.60;99.90;;;;;;5027353;28;20489;-66
2023/01/17 11:31:07;;;;;;;1999.90;999.90;;;6.50;99.90;;;;;;5029942;28;20445;-66
2023/01/17 11:33:43;;;;;;;1999.90;999.90;;;6.50;99.90;;;;;;5029979;28;20453;-67
2023/01/17 11:36:17;;;;;;;1999.90;999.90;;;6.60;99.90;;;;;;5030323;28;20471;-66
2023/01/17 11:38:55;;;;;;;1999.90;999.90;;;6.70;99.90;;;;;;5029701;28;20494;-67
2023/01/17 11:41:26;;;;;;;1999.90;999.90;;;7.00;99.90;;;;;;5028485;28;20465;-67
2023/01/17 11:43:55;;;;;;;1999.90;999.90;;;7.20;99.90;;;;;;5029436;28;21006;-68
2023/01/17 11:46:22;;;;;;;1999.90;999.90;;;7.50;99.90;;;;;;5029998;28;20451;-66
2023/01/17 11:48:52;;;;;;;1999.90;999.90;;;7.60;99.90;;;;;;5029521;28;20527;-66
2023/01/17 11:51:24;;;;;;;1999.90;999.90;;;7.70;99.90;;;;;;5030312;28;20452;-68
2023/01/17 11:53:51;;;;;;;1999.90;999.90;;;7.90;99.90;;;;;;5030298;28;20440;-67
2023/01/17 11:56:29;;;;;;;1999.90;999.90;;;8.10;99.90;;;;;;5030034;28;20452;-67
2023/01/17 11:59:17;;;;;;;1999.90;999.90;;;8.20;99.90;;;;;;5029747;28;20970;-66
2023/01/17 12:01:51;;;;;;;1999.90;999.90;;;8.20;99.80;;;;;;5025663;28;20965;-66
2023/01/17 12:04:30;;;;;;;1999.90;999.90;;;8.20;99.40;;;;;;5024621;28;20982;-67
2023/01/17 12:07:15;;;;;;;1999.90;999.90;;;8.30;99.90;;;;;;5027938;28;20453;-68
2023/01/17 12:09:49;;;;;;;1999.90;999.90;;;8.30;99.50;;;;;;5028000;28;20484;-68
2023/01/17 12:15:25;;;;;;;1999.90;999.90;;;8.30;98.80;;;;;;5030121;28;20802;-66
2023/01/17 12:18:12;;;;;;;1999.90;999.90;;;8.20;99.10;;;;;;5029885;28;20841;-67
2023/01/17 12:20:48;;;;;;;1999.90;999.90;;;7.90;99.80;;;;;;5029558;28;20501;-67
2023/01/17 12:23:31;;;;;;;1999.90;999.90;;;7.90;99.40;;;;;;5030037;28;20828;-67
2023/01/17 12:26:19;;;;;;;1999.90;999.90;;;7.70;99.90;;;;;;5029714;28;20448;-66
2023/01/17 12:29:19;;;;;;;1999.90;999.90;;;7.80;99.90;;;;;;5029263;28;20546;-67
2023/01/17 12:31:54;;;;;;;1999.90;999.90;;;7.70;99.40;;;;;;5022830;28;20449;-67
2023/01/17 12:34:26;;;;;;;1999.90;999.90;;;7.70;99.30;;;;;;5028808;28;20978;-67
2023/01/17 12:36:57;;;;;;;1999.90;999.90;;;7.80;99.90;;;;;;5029043;28;20444;-67
2023/01/17 12:39:33;;;;;;;1999.90;999.90;;;7.90;98.80;;;;;;5029136;28;20500;-67
2023/01/17 12:42:04;;;;;;;1999.90;999.90;;;7.80;99.40;;;;;;5045167;28;20444;-67
2023/01/17 12:44:51;;;;;;;1999.90;999.90;;;7.80;99.80;;;;;;5049530;28;20444;-67
2023/01/17 12:47:20;;;;;;;1999.90;999.90;;;7.80;99.00;;;;;;5049730;28;20444;-67
2023/01/17 12:49:52;;;;;;;1999.90;999.90;;;7.80;99.20;;;;;;5048858;28;20518;-67
2023/01/17 12:52:24;;;;;;;1999.90;999.90;;;7.80;99.00;;;;;;5049525;28;20447;-67
2023/01/17 12:54:57;;;;;;;1999.90;999.90;;;7.80;99.00;;;;;;5049255;28;20827;-69
2023/01/17 12:57:28;;;;;;;1999.90;999.90;;;7.80;99.20;;;;;;5049426;28;20454;-65
2023/01/17 13:00:02;;;;;;;1999.90;999.90;;;7.80;98.90;;;;;;5048964;28;20468;-66
2023/01/17 13:02:37;;;;;;;1999.90;999.90;;;7.60;98.90;;;;;;5049360;28;20486;-66
2023/01/17 13:05:11;;;;;;;1999.90;999.90;;;7.60;99.90;;;;;;5049418;28;20453;-67
2023/01/17 13:07:44;;;;;;;1999.90;999.90;;;7.60;99.90;;;;;;5048982;28;20482;-66
2023/01/17 13:10:30;;;;;;;1999.90;999.90;;;7.60;99.90;;;;;;5048837;28;20487;-66
2023/01/17 13:13:03;;;;;;;1999.90;999.90;;;7.60;99.30;;;;;;5049075;28;21064;-66
2023/01/17 13:15:37;;;;;;;1999.90;999.90;;;7.60;99.70;;;;;;5049172;28;20451;-66
2023/01/17 13:18:10;;;;;;;1999.90;999.90;;;7.60;99.90;;;;;;5048775;28;20451;-67
2023/01/17 13:20:51;;;;;;;1999.90;999.90;;;7.60;99.80;;;;;;5048752;28;20471;-67
2023/01/17 13:23:29;;;;;;;1999.90;999.90;;;7.60;99.90;;;;;;5048938;28;20984;-67
2023/01/17 13:25:59;;;;;;;1999.90;999.90;;;7.60;99.80;;;;;;5048997;28;20453;-67
2023/01/17 13:28:38;;;;;;;1999.90;999.90;;;7.50;99.00;;;;;;5048572;28;20476;-67
2023/01/17 13:31:30;;;;;;;1999.90;999.90;;;7.30;98.60;;;;;;5049382;28;20455;-66
2023/01/17 13:34:20;;;;;;;1999.90;999.90;;;7.20;99.00;;;;;;5048693;28;20474;-67
2023/01/17 13:37:09;;;;;;;1999.90;999.90;;;7.10;99.40;;;;;;5048664;28;20543;-67
2023/01/17 13:39:54;;;;;;;1999.90;999.90;;;7.00;99.90;;;;;;5048364;28;20870;-67
2023/01/17 13:42:29;;;;;;;1999.90;999.90;;;6.80;99.90;;;;;;5048959;28;20452;-67
2023/01/17 13:44:56;;;;;;;1999.90;999.90;;;6.70;99.90;;;;;;5048537;28;20443;-65
2023/01/17 13:47:40;;;;;;;1999.90;999.90;;;6.70;99.90;;;;;;5048891;28;20447;-66